Time;durP1;ratioP1;P1;durP2;ratioP2;P2;SDS_P1;SDS_P2;PMS_P1;PMS_P2;Temp;Humidity;BMP_temperature;BMP_pressure;BME280_temperature;BME280_humidity;BME280_pressure;Samples;Min_cycle;Max_cycle;Signal;HPM_P1;HPM_P2
2022/07/31 00:02:05;;;;;;;4.35;2.63;;;;;;;21.70;46.51;100609.13;5025052;28;20049;-79
2022/07/31 00:04:32;;;;;;;3.88;2.80;;;;;;;21.68;46.21;100608.41;5034955;28;20524;-79
2022/07/31 00:06:59;;;;;;;2.40;2.20;;;;;;;21.70;46.34;100613.69;5030119;28;20099;-78
2022/07/31 00:09:28;;;;;;;5.65;2.55;;;;;;;21.72;46.53;100616.25;5033332;28;20094;-80
2022/07/31 00:12:16;;;;;;;4.47;2.60;;;;;;;21.73;46.60;100616.06;5029790;28;20124;-80
2022/07/31 00:14:43;;;;;;;4.55;2.83;;;;;;;21.74;46.79;100614.22;5034121;28;20079;-80
2022/07/31 00:17:10;;;;;;;4.72;2.40;;;;;;;21.76;46.65;100612.25;5029836;28;20068;-81
2022/07/31 00:19:37;;;;;;;3.72;2.72;;;;;;;21.75;46.37;100608.69;5028942;28;20081;-81
2022/07/31 00:22:03;;;;;;;4.50;2.60;;;;;;;21.67;46.43;100581.59;5034444;28;20061;-80
2022/07/31 00:24:30;;;;;;;4.68;3.05;;;;;;;21.79;46.62;100602.06;5032475;28;20579;-80
2022/07/31 00:26:57;;;;;;;3.92;2.60;;;;;;;21.81;46.57;100593.81;5032214;28;20057;-81
2022/07/31 00:29:24;;;;;;;4.47;2.70;;;;;;;21.84;46.41;100596.25;5024517;28;20057;-77
2022/07/31 00:31:51;;;;;;;5.15;2.70;;;;;;;21.82;46.40;100596.38;5035220;28;20130;-80
2022/07/31 00:34:17;;;;;;;4.43;2.75;;;;;;;21.82;46.16;100596.38;5025108;28;20041;-76
2022/07/31 00:36:44;;;;;;;4.07;2.80;;;;;;;21.80;46.35;100595.66;5042949;28;20076;-78
2022/07/31 00:39:10;;;;;;;4.10;2.90;;;;;;;21.76;46.40;100591.53;5039316;28;20076;-80
2022/07/31 00:41:43;;;;;;;4.72;2.40;;;;;;;21.75;46.51;100584.44;5032283;28;20053;-78
2022/07/31 00:44:10;;;;;;;3.72;2.55;;;;;;;21.76;46.31;100586.16;5033050;28;20156;-79
2022/07/31 00:46:38;;;;;;;3.10;2.50;;;;;;;21.74;45.95;100584.56;5037832;28;20464;-80
2022/07/31 00:49:07;;;;;;;3.70;2.50;;;;;;;21.74;46.32;100589.97;5033644;28;20589;-79
2022/07/31 00:51:34;;;;;;;4.38;2.88;;;;;;;21.60;46.50;100570.50;5035318;28;20061;-79
2022/07/31 00:54:00;;;;;;;2.60;2.35;;;;;;;21.58;46.53;100571.63;5040023;28;20041;-80
2022/07/31 00:56:27;;;;;;;5.40;2.30;;;;;;;21.64;46.30;100576.47;5046286;28;20045;-78
2022/07/31 00:58:54;;;;;;;4.35;2.65;;;;;;;21.69;46.51;100591.25;5037310;28;20057;-75
2022/07/31 01:01:21;;;;;;;3.65;2.35;;;;;;;21.68;46.24;100581.47;5034876;28;20045;-78
2022/07/31 01:03:49;;;;;;;4.93;2.63;;;;;;;21.70;46.15;100584.03;5037072;28;20042;-79
2022/07/31 01:06:15;;;;;;;5.07;2.45;;;;;;;21.71;46.19;100591.13;5033338;28;20104;-76
2022/07/31 01:08:42;;;;;;;4.07;2.80;;;;;;;21.60;46.35;100569.66;5030281;28;20454;-79
2022/07/31 01:11:54;;;;;;;4.10;2.83;;;;;;;21.69;46.51;100585.88;5033004;28;20129;-79
2022/07/31 01:14:26;;;;;;;3.80;2.63;;;;;;;21.68;46.62;100575.22;4996705;28;20132;-75
2022/07/31 01:16:56;;;;;;;3.95;2.70;;;;;;;21.73;46.32;100586.41;5034349;28;20053;-81
2022/07/31 01:19:40;;;;;;;;;;;;;;;21.68;46.62;100578.78;5034703;28;20044;-79
2022/07/31 01:22:33;;;;;;;4.03;2.90;;;;;;;21.67;46.61;100573.53;5032263;28;19933;-78
2022/07/31 01:25:06;;;;;;;5.18;2.88;;;;;;;21.67;46.45;100577.06;5027174;28;20072;-80
2022/07/31 01:28:06;;;;;;;6.68;3.22;;;;;;;21.65;46.62;100575.50;5033959;28;20053;-78
2022/07/31 01:30:45;;;;;;;3.35;2.60;;;;;;;21.60;46.81;100565.13;5034256;28;20140;-78
2022/07/31 01:33:21;;;;;;;3.35;2.63;;;;;;;21.61;47.00;100571.38;5030782;28;20479;-80
2022/07/31 01:35:57;;;;;;;4.32;2.55;;;;;;;21.55;47.41;100578.19;5032832;28;20049;-79
2022/07/31 01:38:29;;;;;;;4.40;2.90;;;;;;;21.41;47.99;100553.47;5034708;28;20092;-80
2022/07/31 01:41:02;;;;;;;4.47;2.88;;;;;;;21.30;48.05;100559.78;5027584;28;20472;-80
2022/07/31 01:43:36;;;;;;;4.40;3.05;;;;;;;21.33;48.51;100573.84;5036242;28;20096;-79
2022/07/31 01:46:04;;;;;;;5.78;3.28;;;;;;;21.12;48.65;100543.38;5035310;28;20045;-82
2022/07/31 01:48:32;;;;;;;4.40;3.50;;;;;;;21.22;48.94;100573.09;5032273;28;20095;-75
2022/07/31 01:51:01;;;;;;;8.05;4.45;;;;;;;21.16;49.43;100571.75;5030782;28;20045;-79
2022/07/31 01:53:34;;;;;;;5.15;3.70;;;;;;;21.19;49.50;100573.34;5031451;28;20060;-79
2022/07/31 01:56:02;;;;;;;4.88;3.28;;;;;;;21.12;49.69;100553.31;5037360;28;20073;-81
2022/07/31 01:58:34;;;;;;;3.30;3.00;;;;;;;21.19;49.90;100567.94;5030686;28;20041;-80
2022/07/31 02:01:03;;;;;;;4.50;3.38;;;;;;;21.20;50.37;100562.47;5024349;28;20509;-77
2022/07/31 02:03:31;;;;;;;5.78;3.58;;;;;;;21.19;50.06;100566.16;5028572;28;20124;-81
2022/07/31 02:06:15;;;;;;;7.95;3.58;;;;;;;21.10;50.25;100545.38;5035613;28;20131;-76
2022/07/31 02:08:44;;;;;;;5.55;3.50;;;;;;;21.02;50.42;100532.59;5039227;28;20146;-80
2022/07/31 02:11:17;;;;;;;4.20;2.95;;;;;;;21.14;50.15;100556.72;5035302;28;20057;-81
2022/07/31 02:13:46;;;;;;;4.43;3.20;;;;;;;20.93;50.15;100528.03;5031357;28;20098;-82
2022/07/31 02:16:14;;;;;;;4.70;3.38;;;;;;;21.04;50.27;100555.84;5035094;28;20071;-81
2022/07/31 02:18:42;;;;;;;4.38;3.53;;;;;;;21.00;50.41;100550.72;5030560;28;20052;-79
2022/07/31 02:21:08;;;;;;;4.00;3.47;;;;;;;21.03;50.35;100557.69;5026171;28;20040;-82
2022/07/31 02:23:36;;;;;;;5.13;3.05;;;;;;;21.01;50.59;100557.81;5038162;28;20076;-78
2022/07/31 02:26:05;;;;;;;6.38;3.50;;;;;;;20.85;50.51;100532.38;5032986;28;20176;-80
2022/07/31 02:28:35;;;;;;;4.35;3.30;;;;;;;20.96;50.96;100554.66;5030495;28;20520;-81
2022/07/31 02:31:04;;;;;;;4.22;3.38;;;;;;;20.89;50.74;100541.88;5027828;28;20137;-77
2022/07/31 02:33:31;;;;;;;5.40;3.58;;;;;;;20.87;51.16;100539.31;5035319;28;20527;-77
2022/07/31 02:35:59;;;;;;;4.47;3.63;;;;;;;20.81;51.38;100542.53;5034137;28;20590;-82
2022/07/31 02:38:27;;;;;;;6.07;3.55;;;;;;;20.79;51.30;100543.66;5025565;28;20046;-80
2022/07/31 02:40:58;;;;;;;4.28;3.60;;;;;;;20.74;51.42;100549.47;5031259;28;20041;-79
2022/07/31 02:43:26;;;;;;;4.75;3.50;;;;;;;20.73;51.47;100547.75;5038130;28;20104;-80
2022/07/31 02:45:54;;;;;;;4.00;3.50;;;;;;;20.77;51.67;100553.72;5030726;28;20051;-81
2022/07/31 02:48:22;;;;;;;5.20;3.22;;;;;;;20.79;51.80;100562.50;5029921;28;20049;-78
2022/07/31 02:50:49;;;;;;;5.07;3.22;;;;;;;20.79;51.52;100551.72;5035932;28;20046;-83
2022/07/31 02:53:16;;;;;;;5.10;3.38;;;;;;;20.79;51.44;100551.72;5032735;28;20053;-80
2022/07/31 02:55:44;;;;;;;6.32;3.53;;;;;;;20.78;51.73;100555.44;5038292;28;20083;-80
2022/07/31 02:58:11;;;;;;;7.32;3.30;;;;;;;20.73;51.99;100558.53;5039416;28;20045;-81
2022/07/31 03:00:37;;;;;;;3.30;3.00;;;;;;;20.74;52.23;100559.38;5030817;28;20076;-83
2022/07/31 03:03:04;;;;;;;6.25;3.40;;;;;;;20.72;51.70;100558.66;5034205;28;20153;-81
2022/07/31 03:05:31;;;;;;;6.13;3.15;;;;;;;20.58;52.16;100551.78;5034810;28;20076;-82
2022/07/31 03:07:58;;;;;;;5.18;3.00;;;;;;;20.54;52.33;100553.00;5030925;28;20646;-81
2022/07/31 03:10:25;;;;;;;3.80;3.30;;;;;;;20.42;52.52;100549.56;5036638;28;20077;-80
2022/07/31 03:12:54;;;;;;;4.28;3.30;;;;;;;20.42;52.70;100554.94;5032442;28;20153;-81
2022/07/31 03:15:26;;;;;;;4.53;3.33;;;;;;;20.31;52.67;100533.41;5033622;28;20104;-82
2022/07/31 03:17:53;;;;;;;6.13;3.40;;;;;;;20.33;53.11;100539.53;5034946;28;20049;-78
2022/07/31 03:20:22;;;;;;;5.40;3.75;;;;;;;20.28;53.25;100536.41;5034480;28;20091;-81
2022/07/31 03:22:49;;;;;;;6.53;3.65;;;;;;;20.27;53.41;100546.31;5036029;28;20072;-82
2022/07/31 03:25:17;;;;;;;3.85;3.47;;;;;;;20.29;53.77;100538.97;5031828;28;20049;-76
2022/07/31 03:27:48;;;;;;;5.32;3.30;;;;;;;20.24;54.18;100535.78;5023610;28;20049;-79
2022/07/31 03:30:24;;;;;;;3.90;3.33;;;;;;;20.20;54.47;100537.03;5031616;28;20037;-81
2022/07/31 03:32:55;;;;;;;4.90;3.90;;;;;;;19.99;54.65;100511.13;5030108;28;20096;-78
2022/07/31 03:35:23;;;;;;;;;;;;;;;20.08;54.91;100539.91;5038513;28;20073;-80
2022/07/31 03:37:49;;;;;;;6.35;3.75;;;;;;;20.02;54.93;100540.41;5031033;28;19966;-79
2022/07/31 03:40:16;;;;;;;5.53;3.67;;;;;;;19.98;55.72;100542.53;5034566;28;20065;-80
2022/07/31 03:42:43;;;;;;;6.88;4.05;;;;;;;19.85;56.04;100536.44;5032737;28;20447;-79
2022/07/31 03:45:11;;;;;;;5.90;3.70;;;;;;;19.90;56.41;100545.84;5035086;28;20048;-78
2022/07/31 03:47:38;;;;;;;5.03;3.67;;;;;;;19.93;56.49;100550.97;5031814;28;20049;-76
2022/07/31 03:50:06;;;;;;;3.53;3.10;;;;;;;19.93;56.37;100550.97;5027167;28;20260;-80
2022/07/31 03:52:34;;;;;;;4.28;3.55;;;;;;;19.86;56.38;100549.75;5042980;28;20073;-82
2022/07/31 03:55:01;;;;;;;4.53;3.60;;;;;;;19.91;56.85;100552.94;5038297;28;20314;-80
2022/07/31 03:57:29;;;;;;;4.28;3.67;;;;;;;19.91;56.74;100555.63;5034204;28;20042;-83
2022/07/31 04:00:01;;;;;;;7.60;3.80;;;;;;;19.77;57.05;100528.19;5024620;28;20049;-82
2022/07/31 04:02:28;;;;;;;4.85;3.95;;;;;;;19.83;56.76;100538.44;5023880;28;20046;-80
2022/07/31 04:04:57;;;;;;;6.72;3.97;;;;;;;19.95;56.72;100557.06;5022328;28;20046;-80
2022/07/31 04:07:24;;;;;;;4.43;4.03;;;;;;;19.98;56.89;100560.50;5033501;28;20505;-81
2022/07/31 04:09:50;;;;;;;4.57;3.78;;;;;;;19.98;56.93;100561.34;5030924;28;20069;-78
2022/07/31 04:12:17;;;;;;;4.13;3.50;;;;;;;20.02;56.65;100561.91;5032422;28;20162;-78
2022/07/31 04:14:44;;;;;;;4.07;3.67;;;;;;;20.09;56.64;100563.13;5034891;28;20056;-80
2022/07/31 04:17:14;;;;;;;6.38;4.20;;;;;;;20.14;57.16;100566.28;5038285;28;20548;-79
2022/07/31 04:19:40;;;;;;;4.50;3.45;;;;;;;20.17;56.91;100564.16;5034621;28;20075;-77
2022/07/31 04:22:07;;;;;;;5.38;3.63;;;;;;;20.22;56.40;100571.88;5040917;28;20061;-81
2022/07/31 04:24:34;;;;;;;5.43;3.90;;;;;;;20.23;56.62;100570.88;5045119;28;20111;-80
2022/07/31 04:27:03;;;;;;;6.03;4.05;;;;;;;20.20;55.47;100568.44;5038432;28;20053;-80
2022/07/31 04:29:35;;;;;;;6.95;3.80;;;;;;;20.12;55.99;100563.72;5037249;28;20053;-80
2022/07/31 04:32:02;;;;;;;5.47;3.97;;;;;;;20.10;56.13;100571.06;5039617;28;20049;-81
2022/07/31 04:34:29;;;;;;;6.75;3.92;;;;;;;20.08;56.40;100577.53;5037044;28;20050;-82
2022/07/31 04:36:56;;;;;;;4.78;4.28;;;;;;;19.98;55.70;100549.75;5035798;28;20140;-79
2022/07/31 04:39:22;;;;;;;6.47;4.35;;;;;;;20.08;55.53;100569.47;5036120;28;20501;-78
2022/07/31 04:41:49;;;;;;;6.65;4.18;;;;;;;20.10;55.26;100578.28;5032180;28;20083;-80
2022/07/31 04:44:17;;;;;;;6.03;3.90;;;;;;;20.13;54.89;100570.81;5038347;28;20053;-74
2022/07/31 04:46:44;;;;;;;4.82;3.90;;;;;;;20.18;54.97;100565.88;5035135;28;20513;-78
2022/07/31 04:49:13;;;;;;;5.88;4.35;;;;;;;20.25;55.25;100568.91;5043397;28;20049;-82
2022/07/31 04:51:41;;;;;;;5.78;4.00;;;;;;;20.26;55.12;100565.25;5038104;28;20049;-77
2022/07/31 04:54:09;;;;;;;6.00;3.42;;;;;;;20.21;55.02;100548.63;5041374;28;20082;-78
2022/07/31 04:56:40;;;;;;;5.50;3.97;;;;;;;20.36;54.93;100558.13;5035683;28;20048;-79
2022/07/31 04:59:09;;;;;;;5.90;4.50;;;;;;;20.41;55.08;100563.13;5035968;28;20517;-80
2022/07/31 05:01:38;;;;;;;8.15;4.43;;;;;;;20.51;54.65;100564.88;5039037;28;20056;-81
2022/07/31 05:04:06;;;;;;;10.65;4.57;;;;;;;20.57;54.43;100574.28;5035028;28;20057;-81
2022/07/31 05:06:36;;;;;;;5.65;4.05;;;;;;;20.66;55.20;100562.72;5037050;28;20206;-78
2022/07/31 05:09:05;;;;;;;5.28;4.50;;;;;;;20.73;55.00;100569.28;5032830;28;20061;-80
2022/07/31 05:11:36;;;;;;;6.63;4.07;;;;;;;20.76;54.81;100552.88;5039555;28;20212;-79
2022/07/31 05:14:06;;;;;;;4.90;4.20;;;;;;;20.90;54.44;100567.81;5035449;28;20058;-79
2022/07/31 05:16:34;;;;;;;6.90;4.70;;;;;;;21.02;54.05;100574.81;5037120;28;20115;-81
2022/07/31 05:19:01;;;;;;;4.85;3.78;;;;;;;21.01;53.98;100557.81;5032988;28;20065;-78
2022/07/31 05:21:29;;;;;;;5.88;4.57;;;;;;;21.09;53.55;100556.31;5033615;28;20623;-79
2022/07/31 05:23:57;;;;;;;4.95;4.45;;;;;;;21.19;53.38;100563.44;5030654;28;20524;-80
2022/07/31 05:26:25;;;;;;;6.82;4.65;;;;;;;21.26;52.64;100569.97;5040043;28;20037;-81
2022/07/31 05:28:54;;;;;;;5.63;4.63;;;;;;;21.17;53.10;100546.53;5032181;28;20072;-81
2022/07/31 05:31:25;;;;;;;6.90;4.80;;;;;;;21.29;52.62;100561.63;5038701;28;20049;-82
2022/07/31 05:33:51;;;;;;;5.00;4.43;;;;;;;21.16;53.16;100539.44;5037525;28;20045;-80
2022/07/31 05:36:19;;;;;;;6.72;4.70;;;;;;;21.30;52.64;100563.34;5050917;28;20045;-79
2022/07/31 05:38:46;;;;;;;6.18;4.80;;;;;;;21.25;52.98;100560.19;5032670;28;20037;-79
2022/07/31 05:41:13;;;;;;;5.68;4.70;;;;;;;21.21;53.31;100558.78;5029998;28;20053;-79
2022/07/31 05:43:40;;;;;;;8.05;5.25;;;;;;;21.26;53.36;100561.03;5037963;28;20045;-79
2022/07/31 05:46:07;;;;;;;5.38;4.55;;;;;;;21.24;53.65;100553.13;5037014;28;20497;-80
2022/07/31 05:48:33;;;;;;;5.72;4.50;;;;;;;21.30;53.55;100557.09;5037548;28;20489;-80
2022/07/31 05:51:00;;;;;;;7.50;4.75;;;;;;;21.28;53.17;100554.53;5039466;28;20049;-78
2022/07/31 05:53:31;;;;;;;5.18;4.68;;;;;;;21.28;53.59;100564.47;5041009;28;20545;-81
2022/07/31 05:55:57;;;;;;;5.45;4.95;;;;;;;21.17;53.67;100545.69;5032857;28;20045;-78
2022/07/31 05:58:24;;;;;;;5.63;4.50;;;;;;;21.06;53.40;100535.88;5038828;28;20049;-80
2022/07/31 06:00:50;;;;;;;7.50;4.97;;;;;;;21.16;53.25;100566.38;5036635;28;20093;-78
2022/07/31 06:03:22;;;;;;;6.55;4.65;;;;;;;21.07;53.14;100542.97;5032053;28;20041;-77
2022/07/31 06:05:49;;;;;;;5.57;4.28;;;;;;;21.17;53.45;100562.69;5029940;28;20072;-80
2022/07/31 06:08:16;;;;;;;5.60;4.43;;;;;;;21.19;53.35;100558.06;5026079;28;20041;-82
2022/07/31 06:10:43;;;;;;;8.02;5.00;;;;;;;21.25;53.09;100568.28;5030560;28;20391;-80
2022/07/31 06:13:11;;;;;;;5.47;4.50;;;;;;;21.24;53.00;100572.00;5037615;28;20123;-81
2022/07/31 06:15:38;;;;;;;5.60;4.60;;;;;;;21.30;52.82;100574.13;5036492;28;20784;-80
2022/07/31 06:18:12;;;;;;;6.20;4.18;;;;;;;21.31;53.31;100583.91;5032580;28;20534;-76
2022/07/31 06:20:39;;;;;;;5.63;4.50;;;;;;;21.37;52.97;100578.97;5025233;28;20049;-81
2022/07/31 06:23:06;;;;;;;6.15;4.30;;;;;;;21.34;52.92;100564.78;5033030;28;20088;-79
2022/07/31 06:25:48;;;;;;;6.65;4.35;;;;;;;21.39;52.48;100556.28;5031084;28;20474;-79
2022/07/31 06:28:15;;;;;;;4.57;4.18;;;;;;;21.58;52.36;100571.63;5035447;28;20049;-81
2022/07/31 06:30:42;;;;;;;7.15;4.32;;;;;;;21.68;51.60;100586.84;5030152;28;20049;-82
2022/07/31 06:33:09;;;;;;;6.22;4.22;;;;;;;21.71;51.18;100572.25;5020426;28;20119;-80
2022/07/31 06:35:55;;;;;;;4.22;3.80;;;;;;;21.80;51.35;100571.41;5034536;28;20140;-83
2022/07/31 06:38:23;;;;;;;5.82;4.28;;;;;;;21.93;50.67;100576.53;5029451;28;20053;-79
2022/07/31 06:40:50;;;;;;;9.82;4.65;;;;;;;21.93;51.08;100568.44;5033217;28;20497;-82
2022/07/31 06:43:17;;;;;;;5.47;4.68;;;;;;;22.03;50.46;100578.28;5026222;28;20126;-76
2022/07/31 06:45:44;;;;;;;5.20;4.25;;;;;;;22.10;50.46;100565.06;5031849;28;20161;-80
2022/07/31 06:48:17;;;;;;;8.50;4.45;;;;;;;22.18;50.70;100570.63;5026878;28;20053;-80
2022/07/31 06:50:46;;;;;;;6.18;4.43;;;;;;;22.11;50.79;100577.56;5026496;28;20053;-81
2022/07/31 06:53:13;;;;;;;5.10;4.60;;;;;;;22.14;50.94;100581.84;5029925;28;20612;-79
2022/07/31 06:55:40;;;;;;;6.35;3.63;;;;;;;22.24;50.43;100570.03;5026930;28;20053;-82
2022/07/31 06:58:10;;;;;;;5.15;4.57;;;;;;;22.39;50.24;100573.16;5030727;28;20045;-82
2022/07/31 07:00:37;;;;;;;7.25;4.10;;;;;;;22.41;50.41;100579.25;5014754;28;20683;-82
2022/07/31 07:03:03;;;;;;;5.70;4.40;;;;;;;22.42;50.81;100574.72;5019958;28;20046;-80
2022/07/31 07:05:30;;;;;;;5.05;4.20;;;;;;;22.52;50.67;100571.00;5026929;28;20048;-81
2022/07/31 07:07:57;;;;;;;7.03;4.57;;;;;;;22.57;50.46;100560.63;5027168;28;20049;-79
2022/07/31 07:10:24;;;;;;;4.78;4.25;;;;;;;22.63;49.39;100572.72;5034032;28;20072;-80
2022/07/31 07:12:50;;;;;;;6.63;4.47;;;;;;;22.54;50.85;100582.50;5034872;28;20091;-78
2022/07/31 07:15:19;;;;;;;5.93;4.53;;;;;;;22.36;50.84;100571.59;5027633;28;20049;-79
2022/07/31 07:17:45;;;;;;;5.47;4.10;;;;;;;22.42;51.15;100586.38;5032830;28;20045;-80
2022/07/31 07:20:12;;;;;;;8.52;4.68;;;;;;;22.22;50.52;100555.00;5023842;28;20284;-80
2022/07/31 07:22:39;;;;;;;5.93;4.25;;;;;;;22.46;50.65;100563.50;5028091;28;20485;-79
2022/07/31 07:25:06;;;;;;;6.30;4.22;;;;;;;22.74;50.68;100570.69;5027916;28;20049;-79
2022/07/31 07:27:34;;;;;;;7.63;4.30;;;;;;;22.85;50.21;100552.63;5030202;28;20054;-81
2022/07/31 07:30:00;;;;;;;5.13;4.30;;;;;;;23.03;49.76;100553.56;5024155;28;20049;-80
2022/07/31 07:32:27;;;;;;;4.97;3.95;;;;;;;23.21;49.26;100559.91;5028231;28;20088;-76
2022/07/31 07:34:54;;;;;;;5.30;4.22;;;;;;;23.28;48.51;100562.88;5030653;28;20069;-78
2022/07/31 07:37:26;;;;;;;6.35;4.53;;;;;;;23.14;48.23;100553.38;5031220;28;20403;-79
2022/07/31 07:39:52;;;;;;;5.75;4.60;;;;;;;23.12;48.21;100563.50;5029175;28;20069;-79
2022/07/31 07:42:19;;;;;;;5.13;4.35;;;;;;;23.01;48.35;100555.56;5028926;28;20041;-81
2022/07/31 07:44:46;;;;;;;6.38;4.78;;;;;;;23.03;49.09;100567.94;5031298;28;20474;-79
2022/07/31 07:47:12;;;;;;;5.10;4.15;;;;;;;22.89;48.43;100562.16;5029913;28;20060;-80
2022/07/31 07:49:39;;;;;;;7.35;3.80;;;;;;;22.83;47.79;100570.81;5032343;28;20508;-81
2022/07/31 07:52:06;;;;;;;4.65;3.30;;;;;;;22.87;48.00;100569.53;5035201;28;20532;-77
2022/07/31 07:54:32;;;;;;;6.50;3.80;;;;;;;22.97;47.42;100567.69;5040013;28;20073;-79
2022/07/31 07:56:59;;;;;;;4.72;4.22;;;;;;;22.99;48.91;100565.66;5033009;28;20103;-79
2022/07/31 07:59:26;;;;;;;5.97;3.78;;;;;;;22.89;48.54;100537.84;5035395;28;20041;-79
2022/07/31 08:01:52;;;;;;;6.07;3.95;;;;;;;23.09;48.78;100553.00;5034327;28;20049;-81
2022/07/31 08:04:19;;;;;;;4.20;3.60;;;;;;;23.33;46.43;100558.69;5036515;28;20113;-80
2022/07/31 08:06:46;;;;;;;4.70;3.50;;;;;;;23.59;45.50;100555.34;5037519;28;20044;-80
2022/07/31 08:09:13;;;;;;;4.60;3.65;;;;;;;23.81;45.04;100546.75;5034837;28;20489;-79
2022/07/31 08:11:40;;;;;;;5.55;3.90;;;;;;;24.03;44.33;100545.47;5037749;28;20094;-78
2022/07/31 08:14:07;;;;;;;5.47;3.50;;;;;;;24.18;44.55;100545.78;5033040;28;20095;-79
2022/07/31 08:16:34;;;;;;;7.05;3.25;;;;;;;24.29;44.84;100548.25;5032110;28;20065;-81
2022/07/31 08:19:00;;;;;;;6.28;3.13;;;;;;;24.36;45.58;100552.06;5033782;28;20075;-80
2022/07/31 08:21:27;;;;;;;7.07;3.50;;;;;;;24.50;44.60;100542.50;5033518;28;20049;-79
2022/07/31 08:23:54;;;;;;;5.22;3.67;;;;;;;24.73;44.81;100539.09;5031343;28;20052;-78
2022/07/31 08:26:21;;;;;;;4.75;3.25;;;;;;;24.91;43.78;100543.63;5026555;28;20052;-78
2022/07/31 08:28:52;;;;;;;6.32;3.70;;;;;;;24.92;43.84;100535.34;5025852;28;20068;-78
2022/07/31 08:31:21;;;;;;;5.82;3.83;;;;;;;24.98;43.92;100542.00;5029728;28;20421;-79
2022/07/31 08:33:48;;;;;;;6.68;5.30;;;;;;;25.00;43.97;100548.13;5028246;28;20049;-78
2022/07/31 08:36:15;;;;;;;19.23;6.90;;;;;;;25.04;43.89;100533.22;5028064;28;20045;-79
2022/07/31 08:38:43;;;;;;;5.85;3.13;;;;;;;25.13;42.93;100538.53;5031606;28;20149;-78
2022/07/31 08:41:12;;;;;;;13.35;5.88;;;;;;;24.93;44.08;100522.63;5027198;28;20056;-78
2022/07/31 08:43:39;;;;;;;13.05;7.07;;;;;;;25.46;42.58;100519.69;5024968;28;20445;-76
2022/07/31 08:46:26;;;;;;;6.20;3.88;;;;;;;26.02;41.06;100502.69;5033406;28;20041;-77
2022/07/31 08:48:56;;;;;;;5.10;3.03;;;;;;;26.55;39.82;100523.91;5029691;28;20066;-78
2022/07/31 08:51:24;;;;;;;10.63;4.22;;;;;;;26.89;39.69;100509.22;5022985;28;20065;-80
2022/07/31 08:53:52;;;;;;;4.15;2.67;;;;;;;27.01;39.00;100507.00;5029245;28;20053;-78
2022/07/31 08:56:20;;;;;;;7.65;2.70;;;;;;;27.24;38.14;100513.34;5033796;28;20069;-78
2022/07/31 08:58:46;;;;;;;5.15;3.30;;;;;;;27.54;37.44;100523.44;5036650;28;20042;-78
2022/07/31 09:01:13;;;;;;;7.40;3.67;;;;;;;27.73;36.13;100510.41;5030883;28;20053;-76
2022/07/31 09:03:41;;;;;;;6.07;2.53;;;;;;;27.93;34.96;100511.63;5035625;28;20049;-78
2022/07/31 09:06:07;;;;;;;4.57;2.40;;;;;;;28.06;34.47;100514.59;5036296;28;20535;-78
2022/07/31 09:08:36;;;;;;;5.85;2.70;;;;;;;28.10;34.55;100499.59;5035400;28;20057;-78
2022/07/31 09:11:04;;;;;;;3.92;2.55;;;;;;;28.05;34.35;100504.72;5030080;28;20064;-77
2022/07/31 09:13:33;;;;;;;4.60;2.50;;;;;;;28.02;35.29;100502.34;5034280;28;20464;-78
2022/07/31 09:16:01;;;;;;;9.77;3.92;;;;;;;27.87;35.39;100510.47;5033306;28;20092;-79
2022/07/31 09:18:28;;;;;;;5.97;2.60;;;;;;;27.82;35.10;100503.88;5031254;28;20398;-77
2022/07/31 09:21:01;;;;;;;4.05;2.45;;;;;;;27.62;34.90;100481.75;5028564;28;20718;-79
2022/07/31 09:23:29;;;;;;;5.22;2.85;;;;;;;27.77;35.14;100489.97;5033640;28;20053;-79
2022/07/31 09:25:57;;;;;;;5.10;2.35;;;;;;;27.38;34.23;100477.28;5020638;28;20045;-79
2022/07/31 09:28:36;;;;;;;4.32;2.67;;;;;;;27.09;35.29;100488.78;5031827;28;20051;-80
2022/07/31 09:31:04;;;;;;;3.93;2.47;;;;;;;26.86;34.63;100494.13;5029472;28;20079;-80
2022/07/31 09:33:31;;;;;;;4.85;2.45;;;;;;;26.90;35.51;100483.75;5037063;28;20060;-77
2022/07/31 09:35:59;;;;;;;3.55;2.40;;;;;;;27.10;35.36;100485.03;5026333;28;20457;-80
2022/07/31 09:38:31;;;;;;;4.55;3.03;;;;;;;27.31;35.21;100475.44;5027787;28;20050;-78
2022/07/31 09:41:16;;;;;;;4.20;2.38;;;;;;;27.66;34.50;100468.63;5048433;28;20532;-80
2022/07/31 09:44:03;;;;;;;3.38;2.38;;;;;;;28.21;33.89;100485.56;5033136;28;20045;-79
2022/07/31 09:46:47;;;;;;;4.53;2.72;;;;;;;28.41;33.21;100480.44;5032328;28;20174;-78
2022/07/31 09:49:14;;;;;;;3.30;2.20;;;;;;;28.57;31.93;100473.97;5036102;28;20052;-79
2022/07/31 09:51:42;;;;;;;5.75;2.75;;;;;;;28.68;31.86;100470.78;5029464;28;20056;-76
2022/07/31 09:54:24;;;;;;;3.55;2.50;;;;;;;28.65;32.18;100470.34;5026968;28;20041;-78
2022/07/31 09:56:51;;;;;;;4.10;2.30;;;;;;;28.42;32.29;100445.88;5030269;28;21498;-77
2022/07/31 09:59:18;;;;;;;4.40;2.90;;;;;;;28.39;33.03;100468.03;5030918;28;20057;-77
2022/07/31 10:01:47;;;;;;;4.28;2.38;;;;;;;28.40;32.37;100469.72;5025844;28;20307;-78
2022/07/31 10:04:17;;;;;;;5.75;2.92;;;;;;;28.32;33.12;100451.59;5033468;28;20052;-77
2022/07/31 10:06:50;;;;;;;4.30;2.42;;;;;;;28.37;32.26;100451.88;5028231;28;20119;-78
2022/07/31 10:09:19;;;;;;;4.68;2.30;;;;;;;28.25;32.40;100462.38;5033150;28;20037;-80
2022/07/31 10:11:48;;;;;;;4.18;2.78;;;;;;;27.89;32.70;100461.28;5034099;28;20067;-79
2022/07/31 10:14:25;;;;;;;3.40;2.40;;;;;;;27.01;33.96;100456.22;5032658;28;20424;-78
2022/07/31 10:16:57;;;;;;;5.03;2.35;;;;;;;26.63;35.19;100455.13;5039653;28;20060;-77
2022/07/31 10:19:30;;;;;;;8.35;2.60;;;;;;;26.55;35.19;100452.44;5035062;28;20057;-80
2022/07/31 10:22:00;;;;;;;4.30;2.50;;;;;;;26.47;35.48;100439.72;5030292;28;20091;-81
2022/07/31 10:24:34;;;;;;;4.88;2.33;;;;;;;26.72;35.51;100454.09;5030572;28;20045;-80
2022/07/31 10:27:01;;;;;;;5.90;2.70;;;;;;;26.63;35.63;100441.53;5029326;28;20045;-78
2022/07/31 10:29:38;;;;;;;5.03;3.03;;;;;;;26.70;36.45;100436.28;5026909;28;20065;-76
2022/07/31 10:32:07;;;;;;;7.75;3.05;;;;;;;26.99;36.36;100450.09;5029898;28;20450;-76
2022/07/31 10:34:35;;;;;;;4.63;2.78;;;;;;;27.20;36.70;100442.19;5033825;28;20080;-79
2022/07/31 10:37:23;;;;;;;5.38;3.15;;;;;;;27.26;35.65;100424.31;5028382;28;20534;-77
2022/07/31 10:40:02;;;;;;;3.78;2.55;;;;;;;27.18;35.86;100435.25;5031812;28;20042;-76
2022/07/31 10:42:47;;;;;;;5.43;2.70;;;;;;;26.98;35.95;100417.66;5027350;28;20077;-78
2022/07/31 10:45:15;;;;;;;3.95;2.42;;;;;;;26.98;36.09;100436.69;5033865;28;20045;-79
2022/07/31 10:47:59;;;;;;;4.82;2.50;;;;;;;26.78;36.10;100442.50;5027357;28;20104;-79
2022/07/31 10:50:29;;;;;;;4.75;3.13;;;;;;;26.77;36.29;100434.53;5033656;28;20052;-78
2022/07/31 10:53:11;;;;;;;6.78;2.63;;;;;;;27.00;35.76;100440.09;5031874;28;20067;-77
2022/07/31 10:55:38;;;;;;;5.15;2.65;;;;;;;27.19;35.68;100428.78;5031351;28;20057;-76
2022/07/31 10:58:09;;;;;;;4.85;2.70;;;;;;;27.19;35.51;100428.78;5029224;28;20129;-78
2022/07/31 11:00:36;;;;;;;5.50;2.95;;;;;;;26.79;36.38;100405.31;5027513;28;20045;-81
2022/07/31 11:03:19;;;;;;;5.15;2.30;;;;;;;27.12;36.45;100425.06;5023784;28;20111;-78
2022/07/31 11:05:57;;;;;;;4.07;2.15;;;;;;;27.23;35.74;100419.25;5026801;28;20521;-78
2022/07/31 11:08:50;;;;;;;4.32;2.60;;;;;;;27.04;36.59;100412.38;5030849;28;20053;-77
2022/07/31 11:11:31;;;;;;;3.77;3.00;;;;;;;27.32;36.31;100418.16;5030408;28;20045;-75
2022/07/31 11:13:59;;;;;;;2.50;2.25;;;;;;;27.37;34.99;100396.72;5027294;28;20537;-80
2022/07/31 11:16:26;;;;;;;4.20;2.65;;;;;;;27.39;35.68;100407.41;5031816;28;20053;-81
2022/07/31 11:18:57;;;;;;;4.18;2.83;;;;;;;27.20;36.61;100397.84;5043163;28;20053;-77
2022/07/31 11:21:42;;;;;;;3.70;2.88;;;;;;;26.92;37.02;100387.41;5041283;28;20394;-77
2022/07/31 11:24:17;;;;;;;5.82;2.75;;;;;;;26.78;37.65;100377.31;5039340;28;20453;-80
2022/07/31 11:26:49;;;;;;;4.18;2.50;;;;;;;27.08;36.88;100399.25;5032619;28;20083;-78
2022/07/31 11:29:33;;;;;;;4.88;3.08;;;;;;;27.22;36.60;100382.22;5035547;28;20045;-79
2022/07/31 11:32:20;;;;;;;5.05;2.58;;;;;;;27.44;36.42;100373.19;5037759;28;20132;-78
2022/07/31 11:34:53;;;;;;;3.95;2.60;;;;;;;27.75;35.94;100394.91;5028760;28;20049;-77
2022/07/31 11:37:24;;;;;;;4.53;2.83;;;;;;;27.88;35.80;100386.13;5029081;28;20054;-77
2022/07/31 11:40:04;;;;;;;4.68;2.35;;;;;;;27.92;35.07;100392.91;5028901;28;20053;-77